sensor_id;sensor_type;location;lat;lon;timestamp;temperature;humidity
78479;SHT31;67769;51.972;5.668;2023-06-10T00:01:43;24.7;41.7
78479;SHT31;67769;51.972;5.668;2023-06-10T00:04:14;24.7;41.8
78479;SHT31;67769;51.972;5.668;2023-06-10T00:06:45;24.6;41.9
78479;SHT31;67769;51.972;5.668;2023-06-10T00:09:16;24.6;42.0
78479;SHT31;67769;51.972;5.668;2023-06-10T00:11:45;24.5;42.2
78479;SHT31;67769;51.972;5.668;2023-06-10T00:14:15;24.5;42.3
78479;SHT31;67769;51.972;5.668;2023-06-10T00:16:45;24.4;42.3
78479;SHT31;67769;51.972;5.668;2023-06-10T00:19:14;24.4;42.4
78479;SHT31;67769;51.972;5.668;2023-06-10T00:21:46;24.3;42.5
78479;SHT31;67769;51.972;5.668;2023-06-10T00:24:15;24.3;42.6
78479;SHT31;67769;51.972;5.668;2023-06-10T00:26:47;24.2;42.6
78479;SHT31;67769;51.972;5.668;2023-06-10T00:29:19;24.2;42.7
78479;SHT31;67769;51.972;5.668;2023-06-10T00:31:48;24.2;42.7
78479;SHT31;67769;51.972;5.668;2023-06-10T00:34:18;24.1;42.7
78479;SHT31;67769;51.972;5.668;2023-06-10T00:36:48;24.1;42.7
78479;SHT31;67769;51.972;5.668;2023-06-10T00:39:17;24.0;42.7
78479;SHT31;67769;51.972;5.668;2023-06-10T00:41:49;24.0;42.7
78479;SHT31;67769;51.972;5.668;2023-06-10T00:44:19;24.0;42.7
78479;SHT31;67769;51.972;5.668;2023-06-10T00:46:49;23.9;42.6
78479;SHT31;67769;51.972;5.668;2023-06-10T00:49:23;23.9;42.6
78479;SHT31;67769;51.972;5.668;2023-06-10T00:51:53;23.8;42.7
78479;SHT31;67769;51.972;5.668;2023-06-10T00:54:23;23.8;42.8
78479;SHT31;67769;51.972;5.668;2023-06-10T00:56:53;23.8;42.6
78479;SHT31;67769;51.972;5.668;2023-06-10T00:59:25;23.8;42.4
78479;SHT31;67769;51.972;5.668;2023-06-10T01:01:55;23.8;42.2
78479;SHT31;67769;51.972;5.668;2023-06-10T01:04:25;23.7;42.1
78479;SHT31;67769;51.972;5.668;2023-06-10T01:07:04;23.7;42.2
78479;SHT31;67769;51.972;5.668;2023-06-10T01:09:45;23.7;42.2
78479;SHT31;67769;51.972;5.668;2023-06-10T01:12:20;23.6;42.1
78479;SHT31;67769;51.972;5.668;2023-06-10T01:14:51;23.6;42.2
78479;SHT31;67769;51.972;5.668;2023-06-10T01:17:22;23.6;42.2
78479;SHT31;67769;51.972;5.668;2023-06-10T01:19:55;23.6;42.2
78479;SHT31;67769;51.972;5.668;2023-06-10T01:22:26;23.5;42.2
78479;SHT31;67769;51.972;5.668;2023-06-10T01:24:59;23.5;42.3
78479;SHT31;67769;51.972;5.668;2023-06-10T01:27:36;23.5;42.2
78479;SHT31;67769;51.972;5.668;2023-06-10T01:30:12;23.4;42.3
78479;SHT31;67769;51.972;5.668;2023-06-10T01:32:46;23.4;42.3
78479;SHT31;67769;51.972;5.668;2023-06-10T01:35:17;23.4;42.2
78479;SHT31;67769;51.972;5.668;2023-06-10T01:37:49;23.3;42.1
78479;SHT31;67769;51.972;5.668;2023-06-10T01:40:20;23.3;42.2
78479;SHT31;67769;51.972;5.668;2023-06-10T01:42:50;23.2;42.2
78479;SHT31;67769;51.972;5.668;2023-06-10T01:45:21;23.2;42.2
78479;SHT31;67769;51.972;5.668;2023-06-10T01:47:52;23.2;42.2
78479;SHT31;67769;51.972;5.668;2023-06-10T01:50:22;23.1;42.2
78479;SHT31;67769;51.972;5.668;2023-06-10T01:52:52;23.1;42.2
78479;SHT31;67769;51.972;5.668;2023-06-10T01:55:22;23.1;42.3
78479;SHT31;67769;51.972;5.668;2023-06-10T01:57:51;23.0;42.4
78479;SHT31;67769;51.972;5.668;2023-06-10T02:00:21;23.0;42.4
78479;SHT31;67769;51.972;5.668;2023-06-10T02:02:50;23.0;42.4
78479;SHT31;67769;51.972;5.668;2023-06-10T02:05:20;22.9;42.4
78479;SHT31;67769;51.972;5.668;2023-06-10T02:07:50;22.9;42.4
78479;SHT31;67769;51.972;5.668;2023-06-10T02:10:20;22.9;42.5
78479;SHT31;67769;51.972;5.668;2023-06-10T02:12:51;22.9;42.6
78479;SHT31;67769;51.972;5.668;2023-06-10T02:15:21;22.8;42.5
78479;SHT31;67769;51.972;5.668;2023-06-10T02:17:51;22.8;42.7
78479;SHT31;67769;51.972;5.668;2023-06-10T02:20:22;22.8;42.5
78479;SHT31;67769;51.972;5.668;2023-06-10T02:22:51;22.7;42.6
78479;SHT31;67769;51.972;5.668;2023-06-10T02:25:23;22.7;42.7
78479;SHT31;67769;51.972;5.668;2023-06-10T02:27:52;22.7;42.8
78479;SHT31;67769;51.972;5.668;2023-06-10T02:30:22;22.6;42.9
78479;SHT31;67769;51.972;5.668;2023-06-10T02:32:52;22.6;42.9
78479;SHT31;67769;51.972;5.668;2023-06-10T02:35:23;22.6;43.1
78479;SHT31;67769;51.972;5.668;2023-06-10T02:37:53;22.5;43.3
78479;SHT31;67769;51.972;5.668;2023-06-10T02:40:22;22.5;43.4
78479;SHT31;67769;51.972;5.668;2023-06-10T02:42:52;22.5;43.4
78479;SHT31;67769;51.972;5.668;2023-06-10T02:45:22;22.5;43.7
78479;SHT31;67769;51.972;5.668;2023-06-10T02:47:51;22.4;43.6
78479;SHT31;67769;51.972;5.668;2023-06-10T02:50:21;22.4;43.8
78479;SHT31;67769;51.972;5.668;2023-06-10T02:52:53;22.4;43.9
78479;SHT31;67769;51.972;5.668;2023-06-10T02:55:22;22.4;44.1
78479;SHT31;67769;51.972;5.668;2023-06-10T02:57:53;22.4;44.1
78479;SHT31;67769;51.972;5.668;2023-06-10T03:00:23;22.4;44.2
78479;SHT31;67769;51.972;5.668;2023-06-10T03:02:52;22.3;44.2
78479;SHT31;67769;51.972;5.668;2023-06-10T03:05:24;22.3;44.3
78479;SHT31;67769;51.972;5.668;2023-06-10T03:07:54;22.3;44.5
78479;SHT31;67769;51.972;5.668;2023-06-10T03:10:24;22.2;44.6
78479;SHT31;67769;51.972;5.668;2023-06-10T03:12:54;22.2;44.8
78479;SHT31;67769;51.972;5.668;2023-06-10T03:15:24;22.1;45.0
78479;SHT31;67769;51.972;5.668;2023-06-10T03:17:56;22.1;45.2
78479;SHT31;67769;51.972;5.668;2023-06-10T03:20:25;22.1;45.4
78479;SHT31;67769;51.972;5.668;2023-06-10T03:22:56;22.0;45.5
78479;SHT31;67769;51.972;5.668;2023-06-10T03:25:25;22.0;45.5
78479;SHT31;67769;51.972;5.668;2023-06-10T03:27:58;22.0;45.7
78479;SHT31;67769;51.972;5.668;2023-06-10T03:30:28;22.0;45.9
78479;SHT31;67769;51.972;5.668;2023-06-10T03:32:58;21.9;45.9
78479;SHT31;67769;51.972;5.668;2023-06-10T03:35:28;21.9;46.0
78479;SHT31;67769;51.972;5.668;2023-06-10T03:37:59;21.9;46.0
78479;SHT31;67769;51.972;5.668;2023-06-10T03:40:28;21.9;46.1
78479;SHT31;67769;51.972;5.668;2023-06-10T03:43:00;21.8;46.2
78479;SHT31;67769;51.972;5.668;2023-06-10T03:45:30;21.8;46.4
78479;SHT31;67769;51.972;5.668;2023-06-10T03:48:00;21.8;46.5
78479;SHT31;67769;51.972;5.668;2023-06-10T03:50:31;21.8;46.6
78479;SHT31;67769;51.972;5.668;2023-06-10T03:53:01;21.8;46.6
78479;SHT31;67769;51.972;5.668;2023-06-10T03:55:31;21.8;47.0
78479;SHT31;67769;51.972;5.668;2023-06-10T03:58:00;21.7;47.0
78479;SHT31;67769;51.972;5.668;2023-06-10T04:00:30;21.7;47.2
78479;SHT31;67769;51.972;5.668;2023-06-10T04:03:04;21.7;47.1
78479;SHT31;67769;51.972;5.668;2023-06-10T04:05:36;21.7;47.2
78479;SHT31;67769;51.972;5.668;2023-06-10T04:08:06;21.7;47.2
78479;SHT31;67769;51.972;5.668;2023-06-10T04:10:37;21.7;47.3
78479;SHT31;67769;51.972;5.668;2023-06-10T04:13:07;21.7;47.3
78479;SHT31;67769;51.972;5.668;2023-06-10T04:15:37;21.7;47.4
78479;SHT31;67769;51.972;5.668;2023-06-10T04:18:09;21.7;47.3
78479;SHT31;67769;51.972;5.668;2023-06-10T04:20:41;21.7;47.5
78479;SHT31;67769;51.972;5.668;2023-06-10T04:23:12;21.7;47.6
78479;SHT31;67769;51.972;5.668;2023-06-10T04:25:44;21.7;47.6
78479;SHT31;67769;51.972;5.668;2023-06-10T04:28:14;21.7;47.6
78479;SHT31;67769;51.972;5.668;2023-06-10T04:30:43;21.7;47.7
78479;SHT31;67769;51.972;5.668;2023-06-10T04:33:13;21.7;47.7
78479;SHT31;67769;51.972;5.668;2023-06-10T04:35:44;21.7;47.7
78479;SHT31;67769;51.972;5.668;2023-06-10T04:38:14;21.7;47.8
78479;SHT31;67769;51.972;5.668;2023-06-10T04:40:44;21.7;48.0
78479;SHT31;67769;51.972;5.668;2023-06-10T04:43:14;21.8;48.0
78479;SHT31;67769;51.972;5.668;2023-06-10T04:45:45;21.8;47.9
78479;SHT31;67769;51.972;5.668;2023-06-10T04:48:15;21.8;48.1
78479;SHT31;67769;51.972;5.668;2023-06-10T04:50:45;21.9;48.1
78479;SHT31;67769;51.972;5.668;2023-06-10T04:53:15;22.0;48.3
78479;SHT31;67769;51.972;5.668;2023-06-10T04:55:45;22.1;48.0
78479;SHT31;67769;51.972;5.668;2023-06-10T04:58:15;22.4;47.5
78479;SHT31;67769;51.972;5.668;2023-06-10T05:00:47;22.6;47.0
78479;SHT31;67769;51.972;5.668;2023-06-10T05:03:16;22.7;46.4
78479;SHT31;67769;51.972;5.668;2023-06-10T05:05:46;22.8;46.1
78479;SHT31;67769;51.972;5.668;2023-06-10T05:08:18;22.9;46.2
78479;SHT31;67769;51.972;5.668;2023-06-10T05:10:50;23.0;46.1
78479;SHT31;67769;51.972;5.668;2023-06-10T05:13:19;23.0;46.0
78479;SHT31;67769;51.972;5.668;2023-06-10T05:15:49;23.0;45.9
78479;SHT31;67769;51.972;5.668;2023-06-10T05:18:19;23.1;45.9
78479;SHT31;67769;51.972;5.668;2023-06-10T05:20:48;23.1;45.8
78479;SHT31;67769;51.972;5.668;2023-06-10T05:23:18;23.1;45.8
78479;SHT31;67769;51.972;5.668;2023-06-10T05:25:48;23.2;45.9
78479;SHT31;67769;51.972;5.668;2023-06-10T05:28:18;23.2;45.9
78479;SHT31;67769;51.972;5.668;2023-06-10T05:30:48;23.2;46.2
78479;SHT31;67769;51.972;5.668;2023-06-10T05:33:17;23.3;46.2
78479;SHT31;67769;51.972;5.668;2023-06-10T05:35:47;23.4;46.0
78479;SHT31;67769;51.972;5.668;2023-06-10T05:38:17;23.6;46.1
78479;SHT31;67769;51.972;5.668;2023-06-10T05:40:47;23.9;45.5
78479;SHT31;67769;51.972;5.668;2023-06-10T05:43:17;24.1;45.0
78479;SHT31;67769;51.972;5.668;2023-06-10T05:45:46;24.4;44.0
78479;SHT31;67769;51.972;5.668;2023-06-10T05:48:16;24.7;43.5
78479;SHT31;67769;51.972;5.668;2023-06-10T05:50:47;25.0;43.3
78479;SHT31;67769;51.972;5.668;2023-06-10T05:53:17;25.3;42.8
78479;SHT31;67769;51.972;5.668;2023-06-10T05:55:47;25.5;41.9
78479;SHT31;67769;51.972;5.668;2023-06-10T05:58:19;25.8;41.8
78479;SHT31;67769;51.972;5.668;2023-06-10T06:00:49;26.1;41.0
78479;SHT31;67769;51.972;5.668;2023-06-10T06:03:19;26.3;41.2
78479;SHT31;67769;51.972;5.668;2023-06-10T06:05:48;26.6;40.4
78479;SHT31;67769;51.972;5.668;2023-06-10T06:08:18;26.9;39.8
78479;SHT31;67769;51.972;5.668;2023-06-10T06:10:48;27.1;39.1
78479;SHT31;67769;51.972;5.668;2023-06-10T06:13:18;27.4;39.0
78479;SHT31;67769;51.972;5.668;2023-06-10T06:15:47;27.6;38.4
78479;SHT31;67769;51.972;5.668;2023-06-10T06:18:17;27.9;37.8
78479;SHT31;67769;51.972;5.668;2023-06-10T06:20:47;28.1;37.8
78479;SHT31;67769;51.972;5.668;2023-06-10T06:23:17;28.3;37.2
78479;SHT31;67769;51.972;5.668;2023-06-10T06:25:46;28.5;37.0
78479;SHT31;67769;51.972;5.668;2023-06-10T06:28:16;28.8;36.3
78479;SHT31;67769;51.972;5.668;2023-06-10T06:30:46;28.9;36.3
78479;SHT31;67769;51.972;5.668;2023-06-10T06:33:18;29.1;35.7
78479;SHT31;67769;51.972;5.668;2023-06-10T06:35:48;29.3;35.5
78479;SHT31;67769;51.972;5.668;2023-06-10T06:38:19;29.4;35.4
78479;SHT31;67769;51.972;5.668;2023-06-10T06:40:49;29.6;35.2
78479;SHT31;67769;51.972;5.668;2023-06-10T06:43:19;29.8;34.8
78479;SHT31;67769;51.972;5.668;2023-06-10T06:45:49;29.9;34.5
78479;SHT31;67769;51.972;5.668;2023-06-10T06:48:19;30.1;34.0
78479;SHT31;67769;51.972;5.668;2023-06-10T06:50:48;30.3;33.9
78479;SHT31;67769;51.972;5.668;2023-06-10T06:53:18;30.5;33.8
78479;SHT31;67769;51.972;5.668;2023-06-10T06:55:49;30.7;33.7
78479;SHT31;67769;51.972;5.668;2023-06-10T06:58:18;31.0;33.0
78479;SHT31;67769;51.972;5.668;2023-06-10T07:00:48;31.4;32.4
78479;SHT31;67769;51.972;5.668;2023-06-10T07:03:18;31.6;31.6
78479;SHT31;67769;51.972;5.668;2023-06-10T07:05:48;31.8;31.0
78479;SHT31;67769;51.972;5.668;2023-06-10T07:08:18;32.0;31.4
78479;SHT31;67769;51.972;5.668;2023-06-10T07:10:47;32.1;31.0
78479;SHT31;67769;51.972;5.668;2023-06-10T07:13:18;32.2;30.0
78479;SHT31;67769;51.972;5.668;2023-06-10T07:15:49;32.4;29.8
78479;SHT31;67769;51.972;5.668;2023-06-10T07:18:19;32.5;29.3
78479;SHT31;67769;51.972;5.668;2023-06-10T07:20:49;32.7;28.9
78479;SHT31;67769;51.972;5.668;2023-06-10T07:23:19;32.8;29.1
78479;SHT31;67769;51.972;5.668;2023-06-10T07:25:50;32.9;29.2
78479;SHT31;67769;51.972;5.668;2023-06-10T07:28:22;33.0;29.3
78479;SHT31;67769;51.972;5.668;2023-06-10T07:30:51;33.2;29.7
78479;SHT31;67769;51.972;5.668;2023-06-10T07:33:21;33.4;29.3
78479;SHT31;67769;51.972;5.668;2023-06-10T07:35:51;33.6;28.8
78479;SHT31;67769;51.972;5.668;2023-06-10T07:38:21;33.7;29.4
78479;SHT31;67769;51.972;5.668;2023-06-10T07:40:53;33.9;28.9
78479;SHT31;67769;51.972;5.668;2023-06-10T07:43:25;34.1;28.9
78479;SHT31;67769;51.972;5.668;2023-06-10T07:45:54;34.3;27.8
78479;SHT31;67769;51.972;5.668;2023-06-10T07:48:24;34.5;27.1
78479;SHT31;67769;51.972;5.668;2023-06-10T07:50:54;34.7;27.0
78479;SHT31;67769;51.972;5.668;2023-06-10T07:53:23;34.8;27.5
78479;SHT31;67769;51.972;5.668;2023-06-10T07:55:54;34.9;27.0
78479;SHT31;67769;51.972;5.668;2023-06-10T07:58:23;35.0;26.1
78479;SHT31;67769;51.972;5.668;2023-06-10T08:00:54;35.1;26.4
78479;SHT31;67769;51.972;5.668;2023-06-10T08:03:23;35.1;26.8
78479;SHT31;67769;51.972;5.668;2023-06-10T08:05:55;35.2;26.5
78479;SHT31;67769;51.972;5.668;2023-06-10T08:08:24;35.3;27.0
78479;SHT31;67769;51.972;5.668;2023-06-10T08:10:54;35.4;26.7
78479;SHT31;67769;51.972;5.668;2023-06-10T08:13:24;35.5;26.5
78479;SHT31;67769;51.972;5.668;2023-06-10T08:15:54;35.6;26.4
78479;SHT31;67769;51.972;5.668;2023-06-10T08:18:24;35.7;25.7
78479;SHT31;67769;51.972;5.668;2023-06-10T08:20:53;35.9;25.6
78479;SHT31;67769;51.972;5.668;2023-06-10T08:23:23;36.0;26.3
78479;SHT31;67769;51.972;5.668;2023-06-10T08:25:53;36.1;26.1
78479;SHT31;67769;51.972;5.668;2023-06-10T08:28:22;36.2;26.0
78479;SHT31;67769;51.972;5.668;2023-06-10T08:30:52;36.2;25.7
78479;SHT31;67769;51.972;5.668;2023-06-10T08:33:21;36.2;26.1
78479;SHT31;67769;51.972;5.668;2023-06-10T08:35:51;36.2;26.1
78479;SHT31;67769;51.972;5.668;2023-06-10T08:38:21;36.2;26.1
78479;SHT31;67769;51.972;5.668;2023-06-10T08:40:58;36.2;25.4
78479;SHT31;67769;51.972;5.668;2023-06-10T08:43:33;36.2;25.4
78479;SHT31;67769;51.972;5.668;2023-06-10T08:46:03;36.1;25.9
78479;SHT31;67769;51.972;5.668;2023-06-10T08:48:34;36.1;25.5
78479;SHT31;67769;51.972;5.668;2023-06-10T08:51:06;36.0;25.8
78479;SHT31;67769;51.972;5.668;2023-06-10T08:53:38;36.0;26.4
78479;SHT31;67769;51.972;5.668;2023-06-10T08:56:12;35.9;26.1
78479;SHT31;67769;51.972;5.668;2023-06-10T08:58:43;35.9;26.2
78479;SHT31;67769;51.972;5.668;2023-06-10T09:01:15;35.9;25.5
78479;SHT31;67769;51.972;5.668;2023-06-10T09:03:46;35.9;25.6
78479;SHT31;67769;51.972;5.668;2023-06-10T09:06:16;35.9;25.9
78479;SHT31;67769;51.972;5.668;2023-06-10T09:08:46;35.8;25.8
78479;SHT31;67769;51.972;5.668;2023-06-10T09:11:16;35.8;25.7
78479;SHT31;67769;51.972;5.668;2023-06-10T09:13:47;35.8;25.7
78479;SHT31;67769;51.972;5.668;2023-06-10T09:16:17;35.8;26.6
78479;SHT31;67769;51.972;5.668;2023-06-10T09:18:47;35.8;26.2
78479;SHT31;67769;51.972;5.668;2023-06-10T09:21:22;35.8;25.7
78479;SHT31;67769;51.972;5.668;2023-06-10T09:23:51;35.8;25.6
78479;SHT31;67769;51.972;5.668;2023-06-10T09:26:29;35.8;26.1
78479;SHT31;67769;51.972;5.668;2023-06-10T09:29:03;35.8;26.4
78479;SHT31;67769;51.972;5.668;2023-06-10T09:31:35;35.8;25.9
78479;SHT31;67769;51.972;5.668;2023-06-10T09:34:10;35.9;26.1
78479;SHT31;67769;51.972;5.668;2023-06-10T09:36:41;36.0;26.0
78479;SHT31;67769;51.972;5.668;2023-06-10T09:39:17;36.1;26.1
78479;SHT31;67769;51.972;5.668;2023-06-10T09:41:48;36.2;25.8
78479;SHT31;67769;51.972;5.668;2023-06-10T09:44:19;36.2;25.6
78479;SHT31;67769;51.972;5.668;2023-06-10T09:46:51;36.2;25.7
78479;SHT31;67769;51.972;5.668;2023-06-10T09:49:22;36.2;25.4
78479;SHT31;67769;51.972;5.668;2023-06-10T09:51:54;36.2;25.6
78479;SHT31;67769;51.972;5.668;2023-06-10T09:54:23;36.2;25.7
78479;SHT31;67769;51.972;5.668;2023-06-10T09:56:55;36.2;25.6
78479;SHT31;67769;51.972;5.668;2023-06-10T09:59:30;36.2;25.3
78479;SHT31;67769;51.972;5.668;2023-06-10T10:02:02;36.2;25.7
78479;SHT31;67769;51.972;5.668;2023-06-10T10:04:36;36.2;25.5
78479;SHT31;67769;51.972;5.668;2023-06-10T10:07:06;36.2;25.2
78479;SHT31;67769;51.972;5.668;2023-06-10T10:09:37;36.2;25.4
78479;SHT31;67769;51.972;5.668;2023-06-10T10:12:10;36.1;25.4
78479;SHT31;67769;51.972;5.668;2023-06-10T10:14:47;36.1;25.2
78479;SHT31;67769;51.972;5.668;2023-06-10T10:17:19;36.1;24.9
78479;SHT31;67769;51.972;5.668;2023-06-10T10:20:00;36.1;25.0
78479;SHT31;67769;51.972;5.668;2023-06-10T10:22:39;36.1;24.9
78479;SHT31;67769;51.972;5.668;2023-06-10T10:25:11;36.1;25.0
78479;SHT31;67769;51.972;5.668;2023-06-10T10:27:44;36.2;25.2
78479;SHT31;67769;51.972;5.668;2023-06-10T10:30:20;36.2;24.6
78479;SHT31;67769;51.972;5.668;2023-06-10T10:32:57;36.3;24.3
78479;SHT31;67769;51.972;5.668;2023-06-10T10:35:30;36.3;24.0
78479;SHT31;67769;51.972;5.668;2023-06-10T10:38:02;36.4;23.6
78479;SHT31;67769;51.972;5.668;2023-06-10T10:40:33;36.4;23.2
78479;SHT31;67769;51.972;5.668;2023-06-10T10:43:06;36.4;23.3
78479;SHT31;67769;51.972;5.668;2023-06-10T10:45:37;36.4;23.2
78479;SHT31;67769;51.972;5.668;2023-06-10T10:48:09;36.4;23.1
78479;SHT31;67769;51.972;5.668;2023-06-10T10:50:39;36.4;23.3
78479;SHT31;67769;51.972;5.668;2023-06-10T10:53:09;36.5;23.2
78479;SHT31;67769;51.972;5.668;2023-06-10T10:55:39;36.5;22.1
78479;SHT31;67769;51.972;5.668;2023-06-10T10:58:13;36.6;22.3
78479;SHT31;67769;51.972;5.668;2023-06-10T11:00:45;36.7;21.1
78479;SHT31;67769;51.972;5.668;2023-06-10T11:03:16;36.7;21.6
78479;SHT31;67769;51.972;5.668;2023-06-10T11:05:47;36.7;21.4
78479;SHT31;67769;51.972;5.668;2023-06-10T11:08:47;36.8;21.3
78479;SHT31;67769;51.972;5.668;2023-06-10T11:11:23;36.8;20.0
78479;SHT31;67769;51.972;5.668;2023-06-10T11:14:07;36.7;20.3
78479;SHT31;67769;51.972;5.668;2023-06-10T11:16:43;36.7;21.1
78479;SHT31;67769;51.972;5.668;2023-06-10T11:19:33;36.7;21.2
78479;SHT31;67769;51.972;5.668;2023-06-10T11:22:06;36.7;21.3
78479;SHT31;67769;51.972;5.668;2023-06-10T11:24:37;36.7;21.5
78479;SHT31;67769;51.972;5.668;2023-06-10T11:27:17;36.7;20.6
78479;SHT31;67769;51.972;5.668;2023-06-10T11:30:21;36.7;19.9
78479;SHT31;67769;51.972;5.668;2023-06-10T11:32:55;36.7;20.4
78479;SHT31;67769;51.972;5.668;2023-06-10T11:35:26;36.7;20.3
78479;SHT31;67769;51.972;5.668;2023-06-10T11:37:57;36.7;20.0
78479;SHT31;67769;51.972;5.668;2023-06-10T11:40:28;36.7;19.6
78479;SHT31;67769;51.972;5.668;2023-06-10T11:43:00;36.7;20.6
78479;SHT31;67769;51.972;5.668;2023-06-10T11:45:30;36.6;20.2
78479;SHT31;67769;51.972;5.668;2023-06-10T11:48:01;36.6;20.2
78479;SHT31;67769;51.972;5.668;2023-06-10T11:50:32;36.6;20.0
78479;SHT31;67769;51.972;5.668;2023-06-10T11:53:02;36.6;20.7
78479;SHT31;67769;51.972;5.668;2023-06-10T11:55:46;36.5;20.5
78479;SHT31;67769;51.972;5.668;2023-06-10T11:58:16;36.5;20.4
78479;SHT31;67769;51.972;5.668;2023-06-10T12:00:48;36.4;20.8
78479;SHT31;67769;51.972;5.668;2023-06-10T12:03:19;36.4;20.6
78479;SHT31;67769;51.972;5.668;2023-06-10T12:06:01;36.3;21.3
78479;SHT31;67769;51.972;5.668;2023-06-10T12:08:32;36.3;20.9
78479;SHT31;67769;51.972;5.668;2023-06-10T12:11:02;36.3;21.0
78479;SHT31;67769;51.972;5.668;2023-06-10T12:13:32;36.3;21.0
78479;SHT31;67769;51.972;5.668;2023-06-10T12:16:09;36.3;21.3
78479;SHT31;67769;51.972;5.668;2023-06-10T12:18:39;36.2;20.8
78479;SHT31;67769;51.972;5.668;2023-06-10T12:21:17;36.2;21.3
78479;SHT31;67769;51.972;5.668;2023-06-10T12:24:05;36.3;21.0
78479;SHT31;67769;51.972;5.668;2023-06-10T12:26:42;36.3;20.6
78479;SHT31;67769;51.972;5.668;2023-06-10T12:29:20;36.2;21.0
78479;SHT31;67769;51.972;5.668;2023-06-10T12:31:59;36.2;20.9
78479;SHT31;67769;51.972;5.668;2023-06-10T12:34:31;36.2;20.8
78479;SHT31;67769;51.972;5.668;2023-06-10T12:37:02;36.2;21.4
78479;SHT31;67769;51.972;5.668;2023-06-10T12:39:34;36.2;21.2
78479;SHT31;67769;51.972;5.668;2023-06-10T12:42:04;36.2;21.3
78479;SHT31;67769;51.972;5.668;2023-06-10T12:44:39;36.2;21.2
78479;SHT31;67769;51.972;5.668;2023-06-10T12:47:11;36.2;21.3
78479;SHT31;67769;51.972;5.668;2023-06-10T12:49:41;36.2;21.0
78479;SHT31;67769;51.972;5.668;2023-06-10T12:52:11;36.2;21.3
78479;SHT31;67769;51.972;5.668;2023-06-10T12:54:42;36.2;21.3
78479;SHT31;67769;51.972;5.668;2023-06-10T12:57:14;36.3;21.2
78479;SHT31;67769;51.972;5.668;2023-06-10T12:59:44;36.4;20.4
78479;SHT31;67769;51.972;5.668;2023-06-10T13:02:19;36.5;20.1
78479;SHT31;67769;51.972;5.668;2023-06-10T13:04:51;36.5;20.5
78479;SHT31;67769;51.972;5.668;2023-06-10T13:07:21;36.5;20.1
78479;SHT31;67769;51.972;5.668;2023-06-10T13:09:52;36.5;20.8
78479;SHT31;67769;51.972;5.668;2023-06-10T13:12:21;36.5;20.8
78479;SHT31;67769;51.972;5.668;2023-06-10T13:14:51;36.4;20.8
78479;SHT31;67769;51.972;5.668;2023-06-10T13:17:21;36.4;20.5
78479;SHT31;67769;51.972;5.668;2023-06-10T13:19:50;36.4;20.7
78479;SHT31;67769;51.972;5.668;2023-06-10T13:22:20;36.3;20.5
78479;SHT31;67769;51.972;5.668;2023-06-10T13:24:51;36.3;20.3
78479;SHT31;67769;51.972;5.668;2023-06-10T13:27:21;36.3;20.2
78479;SHT31;67769;51.972;5.668;2023-06-10T13:29:50;36.3;21.0
78479;SHT31;67769;51.972;5.668;2023-06-10T13:32:20;36.3;20.8
78479;SHT31;67769;51.972;5.668;2023-06-10T13:34:52;36.3;20.8
78479;SHT31;67769;51.972;5.668;2023-06-10T13:37:22;36.3;21.0
78479;SHT31;67769;51.972;5.668;2023-06-10T13:39:52;36.3;20.8
78479;SHT31;67769;51.972;5.668;2023-06-10T13:42:22;36.3;20.6
78479;SHT31;67769;51.972;5.668;2023-06-10T13:44:53;36.2;20.2
78479;SHT31;67769;51.972;5.668;2023-06-10T13:47:24;36.2;20.7
78479;SHT31;67769;51.972;5.668;2023-06-10T13:49:54;36.2;20.3
78479;SHT31;67769;51.972;5.668;2023-06-10T13:52:23;36.2;20.8
78479;SHT31;67769;51.972;5.668;2023-06-10T13:54:53;36.1;20.6
78479;SHT31;67769;51.972;5.668;2023-06-10T13:57:22;36.1;20.5
78479;SHT31;67769;51.972;5.668;2023-06-10T13:59:52;36.1;20.7
78479;SHT31;67769;51.972;5.668;2023-06-10T14:02:23;36.1;19.9
78479;SHT31;67769;51.972;5.668;2023-06-10T14:04:55;36.0;20.3
78479;SHT31;67769;51.972;5.668;2023-06-10T14:07:25;36.0;20.5
78479;SHT31;67769;51.972;5.668;2023-06-10T14:09:55;36.0;20.0
78479;SHT31;67769;51.972;5.668;2023-06-10T14:12:26;35.9;20.4
78479;SHT31;67769;51.972;5.668;2023-06-10T14:14:55;35.9;20.5
78479;SHT31;67769;51.972;5.668;2023-06-10T14:17:25;35.8;20.8
78479;SHT31;67769;51.972;5.668;2023-06-10T14:19:55;35.8;20.3
78479;SHT31;67769;51.972;5.668;2023-06-10T14:22:24;35.7;20.3
78479;SHT31;67769;51.972;5.668;2023-06-10T14:24:54;35.7;19.8
78479;SHT31;67769;51.972;5.668;2023-06-10T14:27:23;35.7;20.2
78479;SHT31;67769;51.972;5.668;2023-06-10T14:29:53;35.6;20.1
78479;SHT31;67769;51.972;5.668;2023-06-10T14:32:23;35.6;20.5
78479;SHT31;67769;51.972;5.668;2023-06-10T14:34:54;35.5;20.6
78479;SHT31;67769;51.972;5.668;2023-06-10T14:37:24;35.5;19.6
78479;SHT31;67769;51.972;5.668;2023-06-10T14:39:54;35.4;19.4
78479;SHT31;67769;51.972;5.668;2023-06-10T14:42:24;35.4;20.5
78479;SHT31;67769;51.972;5.668;2023-06-10T14:44:54;35.3;20.7
78479;SHT31;67769;51.972;5.668;2023-06-10T14:47:23;35.3;21.0
78479;SHT31;67769;51.972;5.668;2023-06-10T14:49:53;35.3;21.5
78479;SHT31;67769;51.972;5.668;2023-06-10T14:52:23;35.2;20.6
78479;SHT31;67769;51.972;5.668;2023-06-10T14:54:52;35.2;20.8
78479;SHT31;67769;51.972;5.668;2023-06-10T14:57:22;35.2;21.6
78479;SHT31;67769;51.972;5.668;2023-06-10T14:59:52;35.2;21.7
78479;SHT31;67769;51.972;5.668;2023-06-10T15:02:23;35.2;21.5
78479;SHT31;67769;51.972;5.668;2023-06-10T15:04:54;35.2;22.0
78479;SHT31;67769;51.972;5.668;2023-06-10T15:07:23;35.1;21.9
78479;SHT31;67769;51.972;5.668;2023-06-10T15:09:53;35.1;22.0
78479;SHT31;67769;51.972;5.668;2023-06-10T15:12:23;35.1;22.0
78479;SHT31;67769;51.972;5.668;2023-06-10T15:14:52;35.0;22.3
78479;SHT31;67769;51.972;5.668;2023-06-10T15:17:22;35.0;22.2
78479;SHT31;67769;51.972;5.668;2023-06-10T15:19:52;34.9;22.0
78479;SHT31;67769;51.972;5.668;2023-06-10T15:22:21;34.9;21.9
78479;SHT31;67769;51.972;5.668;2023-06-10T15:24:51;34.8;21.8
78479;SHT31;67769;51.972;5.668;2023-06-10T15:27:22;34.8;21.6
78479;SHT31;67769;51.972;5.668;2023-06-10T15:29:51;34.8;21.9
78479;SHT31;67769;51.972;5.668;2023-06-10T15:32:21;34.8;22.1
78479;SHT31;67769;51.972;5.668;2023-06-10T15:34:51;34.7;22.4
78479;SHT31;67769;51.972;5.668;2023-06-10T15:37:21;34.7;22.5
78479;SHT31;67769;51.972;5.668;2023-06-10T15:39:51;34.6;22.6
78479;SHT31;67769;51.972;5.668;2023-06-10T15:42:21;34.6;22.5
78479;SHT31;67769;51.972;5.668;2023-06-10T15:44:51;34.5;22.7
78479;SHT31;67769;51.972;5.668;2023-06-10T15:47:21;34.4;22.6
78479;SHT31;67769;51.972;5.668;2023-06-10T15:49:50;34.4;22.5
78479;SHT31;67769;51.972;5.668;2023-06-10T15:52:20;34.3;22.7
78479;SHT31;67769;51.972;5.668;2023-06-10T15:54:49;34.3;23.0
78479;SHT31;67769;51.972;5.668;2023-06-10T15:57:19;34.2;23.0
78479;SHT31;67769;51.972;5.668;2023-06-10T15:59:51;34.2;22.7
78479;SHT31;67769;51.972;5.668;2023-06-10T16:02:20;34.2;23.1
78479;SHT31;67769;51.972;5.668;2023-06-10T16:04:50;34.2;23.0
78479;SHT31;67769;51.972;5.668;2023-06-10T16:07:19;34.1;23.3
78479;SHT31;67769;51.972;5.668;2023-06-10T16:09:49;34.1;22.8
78479;SHT31;67769;51.972;5.668;2023-06-10T16:12:19;34.1;23.2
78479;SHT31;67769;51.972;5.668;2023-06-10T16:14:48;34.1;23.2
78479;SHT31;67769;51.972;5.668;2023-06-10T16:17:18;34.0;23.3
78479;SHT31;67769;51.972;5.668;2023-06-10T16:19:48;34.0;23.4
78479;SHT31;67769;51.972;5.668;2023-06-10T16:22:18;33.9;23.4
78479;SHT31;67769;51.972;5.668;2023-06-10T16:24:49;33.9;23.2
78479;SHT31;67769;51.972;5.668;2023-06-10T16:27:19;33.9;23.6